createdAt,value
2023-05-19T06:06:48.580Z,12.82
2023-05-19T06:09:25.633Z,13.76
2023-05-19T06:11:58.492Z,14.16
2023-05-19T06:14:32.266Z,14.18
2023-05-19T06:17:42.146Z,15.06
2023-05-19T06:20:14.110Z,14.80
2023-05-19T06:22:45.947Z,14.98
2023-05-19T06:25:22.018Z,16.07
2023-05-19T06:27:54.698Z,16.32
2023-05-19T06:30:27.625Z,16.07
2023-05-19T06:33:17.551Z,15.35
2023-05-19T06:35:49.389Z,15.75
2023-05-19T06:38:21.568Z,16.56
2023-05-19T06:40:53.376Z,17.19
2023-05-19T06:43:25.270Z,17.08
2023-05-19T06:46:02.203Z,18.33
2023-05-19T06:48:36.022Z,17.73
2023-05-19T06:51:08.677Z,16.63
2023-05-19T06:53:40.521Z,16.86
2023-05-19T06:56:14.054Z,16.58
2023-05-19T06:58:46.026Z,16.53
2023-05-19T07:01:17.678Z,16.25
2023-05-19T07:03:54.961Z,16.96
2023-05-19T07:06:27.461Z,16.19
2023-05-19T07:08:59.359Z,16.76
2023-05-19T07:11:31.487Z,17.76
2023-05-19T07:14:03.584Z,17.94
2023-05-19T07:16:36.793Z,16.73
2023-05-19T07:19:10.034Z,16.60
2023-05-19T07:21:41.809Z,16.58
2023-05-19T07:24:13.499Z,16.72
2023-05-19T07:26:45.154Z,16.53
2023-05-19T07:29:16.755Z,16.74
2023-05-19T07:31:48.455Z,16.43
2023-05-19T07:34:20.686Z,16.74
2023-05-19T07:36:52.329Z,17.40
2023-05-19T07:39:24.274Z,17.94
2023-05-19T07:41:56.257Z,17.25
2023-05-19T07:44:27.987Z,16.99
2023-05-19T07:46:59.609Z,17.02
2023-05-19T07:49:31.311Z,17.71
2023-05-19T07:52:03.626Z,16.86
2023-05-19T07:54:35.258Z,16.69
2023-05-19T07:57:06.924Z,16.67
2023-05-19T07:59:38.477Z,16.84
2023-05-19T08:02:10.212Z,17.49
2023-05-19T08:04:42.069Z,16.53
2023-05-19T08:07:13.713Z,16.69
2023-05-19T08:09:45.340Z,16.50
2023-05-19T08:12:16.974Z,17.11
2023-05-19T08:14:48.694Z,17.68
2023-05-19T08:17:20.328Z,17.77
2023-05-19T08:19:51.930Z,17.18
2023-05-19T08:22:23.493Z,17.47
2023-05-19T08:24:55.038Z,17.66
2023-05-19T08:27:26.686Z,18.28
2023-05-19T08:29:58.962Z,17.79
2023-05-19T08:32:30.694Z,18.38
2023-05-19T08:35:02.316Z,18.03
2023-05-19T08:37:34.182Z,18.73
2023-05-19T08:40:06.599Z,17.11
2023-05-19T08:42:38.324Z,17.37
2023-05-19T08:45:10.357Z,17.12
2023-05-19T08:47:42.068Z,17.89
2023-05-19T08:50:27.825Z,17.91
2023-05-19T08:53:31.922Z,17.01
2023-05-19T08:56:13.852Z,17.11
2023-05-19T08:58:46.650Z,16.84
2023-05-19T09:01:22.313Z,17.83
2023-05-19T09:03:54.260Z,17.18
2023-05-19T09:06:26.670Z,18.72
2023-05-19T09:08:58.454Z,19.06
2023-05-19T09:11:30.045Z,18.03
2023-05-19T09:14:01.723Z,17.72
2023-05-19T09:16:33.452Z,18.24
2023-05-19T09:19:05.192Z,18.60
2023-05-19T09:21:36.783Z,18.93
2023-05-19T09:24:09.909Z,19.28
2023-05-19T09:26:42.913Z,18.55
2023-05-19T09:29:16.993Z,18.26
2023-05-19T09:31:49.385Z,17.78
2023-05-19T09:34:22.185Z,17.90
2023-05-19T09:36:54.189Z,18.42
2023-05-19T09:39:26.397Z,19.64
2023-05-19T09:41:58.102Z,19.17
2023-05-19T09:44:29.990Z,19.74
2023-05-19T09:47:01.644Z,20.37
2023-05-19T09:49:33.325Z,19.75
2023-05-19T09:52:05.174Z,19.62
2023-05-19T09:54:36.866Z,19.53
2023-05-19T09:57:08.874Z,20.30
2023-05-19T09:59:41.442Z,20.61
2023-05-19T10:02:17.947Z,20.09
2023-05-19T10:04:52.140Z,20.60
2023-05-19T10:07:24.716Z,19.22
2023-05-19T10:09:58.701Z,19.59
2023-05-19T10:12:31.934Z,19.60
2023-05-19T10:15:04.531Z,19.38
2023-05-19T10:17:38.650Z,20.07
2023-05-19T10:20:16.232Z,20.45
2023-05-19T10:22:48.386Z,20.56
2023-05-19T10:25:20.036Z,20.02
2023-05-19T10:28:15.003Z,19.91
2023-05-19T10:30:51.527Z,19.32
2023-05-19T10:33:40.742Z,20.76
2023-05-19T10:36:25.622Z,20.58
2023-05-19T10:39:06.021Z,19.05
2023-05-19T10:41:40.345Z,19.21
2023-05-19T10:44:30.205Z,20.16
2023-05-19T10:47:02.135Z,19.83
2023-05-19T10:49:37.298Z,19.77
2023-05-19T10:52:22.099Z,19.78
2023-05-19T10:54:54.262Z,18.54
2023-05-19T10:57:26.914Z,18.54
2023-05-19T10:59:59.847Z,19.33
2023-05-19T11:02:37.294Z,19.99
2023-05-19T11:05:11.573Z,19.78
2023-05-19T11:07:44.915Z,20.26
2023-05-19T11:10:23.839Z,19.86
2023-05-19T11:12:58.267Z,19.87
2023-05-19T11:15:35.196Z,19.69
2023-05-19T11:18:07.762Z,20.77
2023-05-19T11:20:39.620Z,20.64
2023-05-19T11:23:16.144Z,20.32
2023-05-19T11:25:49.777Z,20.22
2023-05-19T11:28:23.744Z,20.34
2023-05-19T11:30:58.047Z,20.52
2023-05-19T11:33:32.197Z,21.05
2023-05-19T11:36:04.965Z,20.33
2023-05-19T11:38:37.067Z,20.97
2023-05-19T11:41:08.641Z,20.93
2023-05-19T11:43:42.163Z,21.50
2023-05-19T11:46:14.013Z,20.54
2023-05-19T11:48:47.546Z,19.68
2023-05-19T11:51:21.497Z,20.03
2023-05-19T11:53:53.409Z,21.07
2023-05-19T11:56:25.038Z,20.40
2023-05-19T11:58:56.583Z,20.91
2023-05-19T12:01:28.214Z,20.45
2023-05-19T12:04:00.233Z,20.78
2023-05-19T12:06:31.987Z,20.61
2023-05-19T12:09:05.650Z,20.58
2023-05-19T12:11:38.029Z,20.73
2023-05-19T12:14:09.790Z,20.93
2023-05-19T12:16:41.651Z,21.08
2023-05-19T12:19:13.391Z,21.28
2023-05-19T12:21:45.395Z,20.92
2023-05-19T12:24:17.447Z,21.30
2023-05-19T12:26:49.093Z,21.98
2023-05-19T12:29:20.776Z,21.49
2023-05-19T12:31:53.289Z,21.43
2023-05-19T12:34:25.413Z,20.77
2023-05-19T12:36:57.156Z,20.63
2023-05-19T12:39:28.887Z,21.64
2023-05-19T12:42:08.264Z,21.53
2023-05-19T12:44:46.912Z,20.26
2023-05-19T12:47:20.305Z,20.95
2023-05-19T12:50:04.896Z,20.46
2023-05-19T12:52:49.647Z,21.63
2023-05-19T12:55:21.815Z,20.89
2023-05-19T12:57:54.248Z,21.56
2023-05-19T13:00:26.701Z,21.01
2023-05-19T13:03:14.595Z,21.39
2023-05-19T13:05:48.409Z,21.60
2023-05-19T13:08:22.151Z,21.93
2023-05-19T13:10:53.818Z,21.35
2023-05-19T13:13:25.423Z,22.14
2023-05-19T13:15:57.053Z,21.77
2023-05-19T13:18:28.747Z,21.48
2023-05-19T13:21:00.371Z,21.45
2023-05-19T13:23:31.949Z,21.17
2023-05-19T13:26:03.888Z,21.74
2023-05-19T13:28:35.426Z,21.40
2023-05-19T13:31:07.187Z,21.53
2023-05-19T13:33:38.837Z,21.56
2023-05-19T13:36:10.456Z,21.85
2023-05-19T13:38:42.112Z,22.38
2023-05-19T13:41:13.947Z,22.06
2023-05-19T13:43:47.445Z,21.37
2023-05-19T13:46:26.514Z,20.97
2023-05-19T13:49:04.586Z,21.19
2023-05-19T13:51:36.130Z,20.95
2023-05-19T13:54:07.764Z,20.81
2023-05-19T13:56:39.624Z,20.69
2023-05-19T13:59:11.334Z,21.08
2023-05-19T14:01:43.797Z,21.48
2023-05-19T14:04:18.408Z,21.34
2023-05-19T14:06:50.454Z,20.71
2023-05-19T14:09:22.102Z,20.00
2023-05-19T14:11:53.697Z,20.12
2023-05-19T14:14:25.554Z,19.61
2023-05-19T14:16:57.177Z,20.05
2023-05-19T14:19:28.755Z,19.23
2023-05-19T14:22:00.413Z,19.51
2023-05-19T14:24:32.042Z,19.82
2023-05-19T14:27:03.781Z,19.30
2023-05-19T14:29:35.549Z,18.89
2023-05-19T14:32:07.860Z,18.95
2023-05-19T14:34:39.512Z,18.71
2023-05-19T14:37:11.100Z,18.97
2023-05-19T14:39:42.756Z,19.21
2023-05-19T14:42:14.404Z,19.07
2023-05-19T14:44:45.990Z,18.96
2023-05-19T14:47:17.613Z,19.48
2023-05-19T14:49:49.411Z,18.97
2023-05-19T14:52:21.041Z,19.07
2023-05-19T14:54:52.740Z,19.50
2023-05-19T14:57:24.397Z,18.63
2023-05-19T14:59:56.088Z,18.51
2023-05-19T15:02:29.539Z,18.75
2023-05-19T15:05:01.465Z,18.28
2023-05-19T15:07:33.164Z,18.12
2023-05-19T15:10:05.226Z,18.23
2023-05-19T15:12:36.932Z,18.15
2023-05-19T15:15:09.247Z,18.04
2023-05-19T15:17:40.865Z,18.00
2023-05-19T15:20:12.946Z,17.77
2023-05-19T15:22:44.618Z,17.81
2023-05-19T15:25:16.294Z,18.10
2023-05-19T15:27:47.952Z,18.04
2023-05-19T15:30:19.708Z,18.02
2023-05-19T15:32:51.336Z,18.10
2023-05-19T15:35:23.009Z,18.23
2023-05-19T15:37:54.932Z,18.55
2023-05-19T15:40:26.663Z,18.16
2023-05-19T15:42:58.773Z,18.24
2023-05-19T15:45:30.415Z,18.03
2023-05-19T15:48:02.102Z,17.89
2023-05-19T15:50:34.277Z,17.58
2023-05-19T15:53:06.592Z,17.53
2023-05-19T15:55:38.226Z,17.46
2023-05-19T15:58:09.802Z,17.28
2023-05-19T16:00:41.374Z,16.71
2023-05-19T16:03:13.195Z,16.66
2023-05-19T16:05:44.938Z,16.83
2023-05-19T16:08:16.590Z,17.13
2023-05-19T16:10:48.303Z,16.95
2023-05-19T16:13:19.918Z,17.06
2023-05-19T16:15:51.635Z,16.86
2023-05-19T16:18:23.250Z,16.88
2023-05-19T16:20:55.094Z,17.01
2023-05-19T16:23:26.675Z,17.08
2023-05-19T16:25:58.286Z,17.01
2023-05-19T16:28:29.853Z,16.79
2023-05-19T16:31:01.441Z,17.13
2023-05-19T16:33:33.021Z,17.05
2023-05-19T16:36:04.808Z,16.59
2023-05-19T16:38:36.454Z,16.99
2023-05-19T16:41:12.010Z,16.82
2023-05-19T16:43:43.835Z,16.93
2023-05-19T16:46:15.522Z,16.72
2023-05-19T16:48:47.162Z,16.73
2023-05-19T16:51:18.932Z,16.50
2023-05-19T16:53:50.519Z,16.26
2023-05-19T16:56:22.145Z,16.01
2023-05-19T16:58:53.853Z,16.20
2023-05-19T17:01:25.639Z,15.94
2023-05-19T17:03:57.296Z,15.80
2023-05-19T17:06:28.915Z,15.84
2023-05-19T17:09:00.621Z,15.86
2023-05-19T17:11:32.316Z,16.01
2023-05-19T17:14:04.499Z,16.12
2023-05-19T17:16:37.011Z,15.97
2023-05-19T17:19:08.841Z,16.09
2023-05-19T17:21:40.784Z,15.82
2023-05-19T17:24:12.370Z,15.92
2023-05-19T17:26:44.077Z,15.88
2023-05-19T17:29:15.811Z,15.83
2023-05-19T17:31:47.417Z,15.62
2023-05-19T17:34:19.150Z,15.78
2023-05-19T17:36:50.760Z,15.62
2023-05-19T17:39:22.370Z,15.59
2023-05-19T17:41:54.047Z,15.58
2023-05-19T17:44:25.694Z,15.68
2023-05-19T17:46:57.281Z,15.58
2023-05-19T17:49:28.887Z,15.44
2023-05-19T17:52:00.864Z,15.84
2023-05-19T17:54:32.950Z,15.59
2023-05-19T17:57:11.068Z,15.92
2023-05-19T17:59:42.799Z,15.52
2023-05-19T18:02:14.524Z,15.65
2023-05-19T18:04:46.417Z,15.84
2023-05-19T18:07:19.221Z,15.58
2023-05-19T18:09:52.098Z,15.52
2023-05-19T18:12:23.728Z,15.48
2023-05-19T18:14:55.267Z,15.56
2023-05-19T18:17:26.953Z,15.66
2023-05-19T18:19:58.624Z,15.36
2023-05-19T18:22:30.179Z,15.21
2023-05-19T18:25:01.950Z,15.42
2023-05-19T18:27:33.570Z,15.60
2023-05-19T18:30:06.479Z,15.38
2023-05-19T18:32:38.125Z,15.35
2023-05-19T18:35:10.026Z,15.43
2023-05-19T18:37:41.658Z,15.57
2023-05-19T18:40:13.369Z,15.33
2023-05-19T18:42:45.229Z,15.34
2023-05-19T18:45:17.014Z,15.24
2023-05-19T18:47:48.686Z,15.07
2023-05-19T18:50:20.407Z,15.27
2023-05-19T18:52:52.009Z,15.18
2023-05-19T18:55:23.688Z,14.97
2023-05-19T18:57:55.353Z,15.11
2023-05-19T19:00:26.957Z,15.02
2023-05-19T19:02:58.738Z,14.86
2023-05-19T19:05:30.406Z,14.87
2023-05-19T19:08:02.574Z,14.81
2023-05-19T19:13:06.752Z,14.75
2023-05-19T19:15:38.350Z,14.83
2023-05-19T19:18:10.015Z,14.83
2023-05-19T19:20:41.737Z,15.02
2023-05-19T19:23:13.430Z,15.04
2023-05-19T19:25:45.063Z,14.68
2023-05-19T19:28:17.144Z,14.79
2023-05-19T19:30:49.443Z,14.91
2023-05-19T19:33:21.339Z,14.80
2023-05-19T19:35:53.165Z,14.83
2023-05-19T19:38:24.880Z,14.75
2023-05-19T19:40:56.480Z,14.82
2023-05-19T19:43:28.228Z,15.04
2023-05-19T19:46:03.400Z,14.80
2023-05-19T19:48:35.172Z,15.10
2023-05-19T19:51:06.916Z,15.10
2023-05-19T19:53:38.690Z,15.11
2023-05-19T19:56:10.447Z,14.70
2023-05-19T19:58:41.993Z,15.06
2023-05-19T20:01:13.641Z,14.75
2023-05-19T20:03:45.291Z,14.79
2023-05-19T20:06:17.055Z,14.84
2023-05-19T20:08:49.274Z,14.79
2023-05-19T20:11:21.086Z,14.55
2023-05-19T20:13:53.351Z,14.48
2023-05-19T20:16:25.078Z,14.54
2023-05-19T20:18:56.769Z,14.63
2023-05-19T20:21:28.424Z,14.51
2023-05-19T20:24:00.087Z,14.62
2023-05-19T20:26:31.801Z,14.44
2023-05-19T20:29:03.437Z,14.41
2023-05-19T20:31:35.086Z,14.53
2023-05-19T20:34:06.708Z,14.13
2023-05-19T20:36:39.109Z,14.17
2023-05-19T20:39:10.824Z,14.05
2023-05-19T20:41:42.516Z,14.00
2023-05-19T20:44:14.103Z,13.93
2023-05-19T20:46:45.850Z,14.39
2023-05-19T20:49:19.137Z,14.39
2023-05-19T20:51:50.929Z,14.18
2023-05-19T20:54:22.623Z,14.11
2023-05-19T20:56:54.364Z,14.18
2023-05-19T20:59:26.021Z,14.58
2023-05-19T21:01:57.697Z,14.20
2023-05-19T21:04:29.370Z,14.30
2023-05-19T21:07:01.066Z,14.38
2023-05-19T21:09:32.813Z,14.23
2023-05-19T21:12:04.742Z,14.02
2023-05-19T21:14:36.365Z,13.97
2023-05-19T21:17:08.415Z,14.19
2023-05-19T21:19:40.115Z,14.07
2023-05-19T21:22:11.722Z,14.06
2023-05-19T21:24:43.350Z,14.37
2023-05-19T21:27:15.025Z,14.13
2023-05-19T21:29:46.730Z,14.15
2023-05-19T21:32:18.469Z,13.93
2023-05-19T21:34:50.118Z,13.97
2023-05-19T21:37:22.538Z,13.98
2023-05-19T21:39:54.091Z,13.98
2023-05-19T21:42:25.741Z,13.81
2023-05-19T21:44:57.412Z,13.73
2023-05-19T21:47:29.061Z,13.87
2023-05-19T21:50:00.669Z,13.91
2023-05-19T21:52:32.292Z,13.96
2023-05-19T21:55:04.194Z,14.07
2023-05-19T21:57:35.731Z,14.09
2023-05-19T22:00:08.131Z,14.03
2023-05-19T22:02:43.328Z,14.20
2023-05-19T22:05:14.999Z,14.02
2023-05-19T22:07:46.616Z,13.83
2023-05-19T22:10:18.269Z,14.13
2023-05-19T22:12:50.132Z,14.12
2023-05-19T22:15:21.999Z,14.00
2023-05-19T22:17:53.796Z,13.97
2023-05-19T22:20:25.595Z,14.07
2023-05-19T22:22:57.913Z,13.94
2023-05-19T22:25:30.217Z,13.87
2023-05-19T22:28:01.909Z,13.97
2023-05-19T22:30:34.844Z,14.11
2023-05-19T22:33:06.825Z,13.88
2023-05-19T22:35:38.554Z,13.66
2023-05-19T22:38:12.111Z,13.99
2023-05-19T22:40:43.754Z,13.82
2023-05-19T22:43:15.360Z,14.14
2023-05-19T22:45:47.075Z,14.12
2023-05-19T22:48:18.862Z,14.07
2023-05-19T22:50:50.442Z,13.83
2023-05-19T22:53:28.056Z,13.88
2023-05-19T22:55:59.754Z,13.82
2023-05-19T22:58:31.487Z,13.81
2023-05-19T23:01:03.203Z,13.66
2023-05-19T23:03:34.863Z,13.44
2023-05-19T23:06:06.409Z,13.67
2023-05-19T23:08:37.998Z,13.75
2023-05-19T23:11:09.543Z,13.43
2023-05-19T23:13:42.401Z,13.44
2023-05-19T23:16:14.203Z,13.69
2023-05-19T23:18:46.043Z,13.77
2023-05-19T23:21:17.749Z,13.69
2023-05-19T23:23:50.266Z,13.67
2023-05-19T23:26:21.849Z,13.35
2023-05-19T23:28:53.527Z,13.78
2023-05-19T23:31:25.233Z,13.38
2023-05-19T23:33:57.005Z,13.48
2023-05-19T23:36:28.656Z,13.44
2023-05-19T23:39:01.050Z,13.48
2023-05-19T23:41:32.694Z,13.75
2023-05-19T23:44:04.431Z,13.57
2023-05-19T23:46:36.128Z,13.58
2023-05-19T23:49:07.844Z,13.81
2023-05-19T23:51:39.534Z,13.77
2023-05-19T23:54:11.193Z,13.38
2023-05-19T23:56:42.912Z,13.16
2023-05-19T23:59:14.621Z,13.23
